createdAt,value
2023-02-05T00:00:30.876Z,1.33
2023-02-05T00:02:58.935Z,1.70
2023-02-05T00:05:26.377Z,1.67
2023-02-05T00:07:53.389Z,1.80
2023-02-05T00:10:21.676Z,2.00
2023-02-05T00:12:49.454Z,1.88
2023-02-05T00:15:17.243Z,1.60
2023-02-05T00:17:45.816Z,2.05
2023-02-05T00:20:14.109Z,1.73
2023-02-05T00:22:41.594Z,1.83
2023-02-05T00:25:08.743Z,1.55
2023-02-05T00:27:36.166Z,1.20
2023-02-05T00:30:04.953Z,1.42
2023-02-05T00:32:32.965Z,1.80
2023-02-05T00:35:00.423Z,1.63
2023-02-05T00:37:28.120Z,1.58
2023-02-05T00:39:59.077Z,1.50
2023-02-05T00:42:27.383Z,1.55
2023-02-05T00:44:54.586Z,1.70
2023-02-05T00:47:22.539Z,1.92
2023-02-05T00:49:51.116Z,1.92
2023-02-05T00:52:18.955Z,2.13
2023-02-05T00:54:46.990Z,2.03
2023-02-05T00:57:16.062Z,1.38
2023-02-05T00:59:43.993Z,1.75
2023-02-05T01:02:12.638Z,2.00
2023-02-05T01:04:40.100Z,2.13
2023-02-05T01:07:08.199Z,3.20
2023-02-05T01:09:36.230Z,2.20
2023-02-05T01:12:03.425Z,2.55
2023-02-05T01:14:30.905Z,2.50
2023-02-05T01:16:58.671Z,2.00
2023-02-05T01:19:26.191Z,2.00
2023-02-05T01:21:55.379Z,1.95
2023-02-05T01:24:24.102Z,2.00
2023-02-05T01:26:54.678Z,2.08
2023-02-05T01:29:23.744Z,1.90
2023-02-05T01:31:50.681Z,1.90
2023-02-05T01:34:18.321Z,1.83
2023-02-05T01:36:47.302Z,1.65
2023-02-05T01:39:14.990Z,1.80
2023-02-05T01:41:45.759Z,1.63
2023-02-05T01:44:15.167Z,1.95
2023-02-05T01:46:46.297Z,1.65
2023-02-05T01:49:22.082Z,1.90
2023-02-05T01:51:51.728Z,1.73
2023-02-05T01:54:23.710Z,1.77
2023-02-05T01:56:55.090Z,1.80
2023-02-05T01:59:26.983Z,1.80
2023-02-05T02:01:55.936Z,1.77
2023-02-05T02:04:38.975Z,2.00
2023-02-05T02:07:10.038Z,1.67
2023-02-05T02:09:40.907Z,1.95
2023-02-05T02:12:10.054Z,1.75
2023-02-05T02:14:40.334Z,1.50
2023-02-05T02:17:09.265Z,1.70
2023-02-05T02:19:41.438Z,1.27
2023-02-05T02:22:29.143Z,1.80
2023-02-05T02:25:15.990Z,1.48
2023-02-05T02:28:12.660Z,1.73
2023-02-05T02:30:46.321Z,1.83
2023-02-05T02:33:19.130Z,2.10
2023-02-05T02:35:52.874Z,1.55
2023-02-05T02:38:30.861Z,1.58
2023-02-05T02:41:05.672Z,2.08
2023-02-05T02:43:45.921Z,1.77
2023-02-05T02:46:22.906Z,1.75
2023-02-05T02:48:52.793Z,1.58
2023-02-05T02:51:21.577Z,2.55
2023-02-05T02:53:54.254Z,1.60
2023-02-05T02:56:23.335Z,2.17
2023-02-05T02:58:55.636Z,1.85
2023-02-05T03:01:26.625Z,2.00
2023-02-05T03:04:00.964Z,1.60
2023-02-05T03:06:32.308Z,1.70
2023-02-05T03:09:17.082Z,1.90
2023-02-05T03:11:44.911Z,1.67
2023-02-05T03:14:14.093Z,1.52
2023-02-05T03:16:41.339Z,1.65
2023-02-05T03:19:09.467Z,1.75
2023-02-05T03:21:43.438Z,1.92
2023-02-05T03:24:12.563Z,1.80
2023-02-05T03:26:41.203Z,2.05
2023-02-05T03:29:15.386Z,1.90
2023-02-05T03:32:01.561Z,1.77
2023-02-05T03:34:59.507Z,2.10
2023-02-05T03:37:57.255Z,1.80
2023-02-05T03:40:25.756Z,1.70
2023-02-05T03:43:06.120Z,2.00
2023-02-05T03:45:33.999Z,1.98
2023-02-05T03:48:24.348Z,2.33
2023-02-05T03:51:26.003Z,2.47
2023-02-05T03:54:24.831Z,2.40
2023-02-05T03:57:05.322Z,2.70
2023-02-05T03:59:35.994Z,2.40
2023-02-05T04:02:05.146Z,3.28
2023-02-05T04:04:34.034Z,3.50
2023-02-05T04:07:01.889Z,3.20
2023-02-05T04:09:29.976Z,3.28
2023-02-05T04:11:59.445Z,3.45
2023-02-05T04:14:26.817Z,2.95
2023-02-05T04:16:55.626Z,3.33
2023-02-05T04:19:24.263Z,3.00
2023-02-05T04:21:52.557Z,3.45
2023-02-05T04:24:21.577Z,3.22
2023-02-05T04:26:50.202Z,2.60
2023-02-05T04:29:18.177Z,2.80
2023-02-05T04:31:47.074Z,2.92
2023-02-05T04:34:15.912Z,3.22
2023-02-05T04:36:44.440Z,3.08
2023-02-05T04:39:13.149Z,3.10
2023-02-05T04:41:43.884Z,2.60
2023-02-05T04:44:12.050Z,2.42
2023-02-05T04:46:40.562Z,3.78
2023-02-05T04:49:07.978Z,3.03
2023-02-05T04:51:35.580Z,2.72
2023-02-05T04:54:02.544Z,2.85
2023-02-05T04:56:30.391Z,2.45
2023-02-05T04:58:59.085Z,2.30
2023-02-05T05:01:27.138Z,2.10
2023-02-05T05:03:56.357Z,1.92
2023-02-05T05:06:23.644Z,1.90
2023-02-05T05:08:52.096Z,1.73
2023-02-05T05:11:20.769Z,1.70
2023-02-05T05:13:50.180Z,2.17
2023-02-05T05:16:18.980Z,1.92
2023-02-05T05:18:47.247Z,2.20
2023-02-05T05:21:15.191Z,1.83
2023-02-05T05:23:43.274Z,2.50
2023-02-05T05:26:13.456Z,2.05
2023-02-05T05:28:42.032Z,2.38
2023-02-05T05:31:12.555Z,2.00
2023-02-05T05:33:41.026Z,1.73
2023-02-05T05:36:10.547Z,2.05
2023-02-05T05:38:40.212Z,1.77
2023-02-05T05:41:23.091Z,2.10
2023-02-05T05:43:52.448Z,2.00
2023-02-05T05:46:22.976Z,2.20
2023-02-05T05:48:54.282Z,2.20
2023-02-05T05:51:23.457Z,1.25
2023-02-05T05:53:51.039Z,1.80
2023-02-05T05:56:19.728Z,1.80
2023-02-05T05:58:48.847Z,2.20
2023-02-05T06:01:20.371Z,1.73
2023-02-05T06:03:49.110Z,2.22
2023-02-05T06:06:19.111Z,2.25
2023-02-05T06:08:47.543Z,2.05
2023-02-05T06:11:16.188Z,1.95
2023-02-05T06:13:44.454Z,2.08
2023-02-05T06:16:11.308Z,2.15
2023-02-05T06:18:39.193Z,2.13
2023-02-05T06:21:08.605Z,2.13
2023-02-05T06:23:36.675Z,2.33
2023-02-05T06:26:05.545Z,2.10
2023-02-05T06:28:33.383Z,1.92
2023-02-05T06:31:01.195Z,1.63
2023-02-05T06:33:29.900Z,2.33
2023-02-05T06:35:57.849Z,2.03
2023-02-05T06:38:25.185Z,2.53
2023-02-05T06:40:52.596Z,2.20
2023-02-05T06:43:19.898Z,2.30
2023-02-05T06:45:49.111Z,2.22
2023-02-05T06:48:17.453Z,2.30
2023-02-05T06:50:46.414Z,2.20
2023-02-05T06:53:15.307Z,2.13
2023-02-05T06:55:43.743Z,2.40
2023-02-05T06:58:11.115Z,2.58
2023-02-05T07:00:40.045Z,4.70
2023-02-05T07:03:07.132Z,5.72
2023-02-05T07:05:36.331Z,4.88
2023-02-05T07:08:07.417Z,2.92
2023-02-05T07:10:36.569Z,3.13
2023-02-05T07:13:05.772Z,3.58
2023-02-05T07:15:37.773Z,3.50
2023-02-05T07:18:05.550Z,3.33
2023-02-05T07:20:32.651Z,2.83
2023-02-05T07:23:00.997Z,3.55
2023-02-05T07:25:36.907Z,4.15
2023-02-05T07:28:07.929Z,3.60
2023-02-05T07:30:37.764Z,3.70
2023-02-05T07:33:07.355Z,3.55
2023-02-05T07:35:39.425Z,3.83
2023-02-05T07:38:07.478Z,4.15
2023-02-05T07:40:37.711Z,3.70
2023-02-05T07:43:04.923Z,3.13
2023-02-05T07:45:32.385Z,4.30
2023-02-05T07:47:59.537Z,3.40
2023-02-05T07:50:28.334Z,3.50
2023-02-05T07:52:59.039Z,3.53
2023-02-05T07:55:27.395Z,3.53
2023-02-05T07:57:55.147Z,3.70
2023-02-05T08:00:23.095Z,3.00
2023-02-05T08:02:51.081Z,2.90
2023-02-05T08:05:18.152Z,3.08
2023-02-05T08:07:45.272Z,3.10
2023-02-05T08:10:15.905Z,2.80
2023-02-05T08:12:44.838Z,2.17
2023-02-05T08:15:11.703Z,2.65
2023-02-05T08:17:39.956Z,2.72
2023-02-05T08:20:08.458Z,2.88
2023-02-05T08:22:39.411Z,2.90
2023-02-05T08:25:12.381Z,2.97
2023-02-05T08:27:42.153Z,2.95
2023-02-05T08:30:13.686Z,2.88
2023-02-05T08:32:42.612Z,2.90
2023-02-05T08:35:11.587Z,2.85
2023-02-05T08:37:39.038Z,2.80
2023-02-05T08:40:07.334Z,2.70
2023-02-05T08:42:37.439Z,2.70
2023-02-05T08:45:09.037Z,2.47
2023-02-05T08:47:36.851Z,2.60
2023-02-05T08:50:07.052Z,2.72
2023-02-05T08:52:34.020Z,2.80
2023-02-05T08:55:03.144Z,2.92
2023-02-05T08:57:31.876Z,3.28
2023-02-05T09:00:00.800Z,3.10
2023-02-05T09:02:32.142Z,3.13
2023-02-05T09:05:08.808Z,3.50
2023-02-05T09:07:38.387Z,2.75
2023-02-05T09:10:09.256Z,2.80
2023-02-05T09:12:36.207Z,2.22
2023-02-05T09:15:04.454Z,3.00
2023-02-05T09:17:32.250Z,2.78
2023-02-05T09:20:01.598Z,2.80
2023-02-05T09:22:29.999Z,2.67
2023-02-05T09:24:58.542Z,2.38
2023-02-05T09:27:27.103Z,3.03
2023-02-05T09:29:54.478Z,2.55
2023-02-05T09:32:23.413Z,2.60
2023-02-05T09:34:52.382Z,2.80
2023-02-05T09:37:19.893Z,2.45
2023-02-05T09:42:48.899Z,2.35
2023-02-05T09:45:47.802Z,2.90
2023-02-05T09:48:49.670Z,2.30
2023-02-05T09:51:25.058Z,2.42
2023-02-05T09:53:57.513Z,2.38
2023-02-05T09:56:28.297Z,2.40
2023-02-05T09:58:58.094Z,2.53
2023-02-05T10:01:41.947Z,2.47
2023-02-05T10:04:11.617Z,1.85
2023-02-05T10:06:51.035Z,2.13
2023-02-05T10:09:27.174Z,2.25
2023-02-05T10:14:54.225Z,2.30
2023-02-05T10:17:42.984Z,2.28
2023-02-05T10:20:41.048Z,2.05
2023-02-05T10:23:16.716Z,2.30
2023-02-05T10:26:15.576Z,2.35
2023-02-05T10:29:08.994Z,2.20
2023-02-05T10:31:54.233Z,2.20
2023-02-05T10:34:48.183Z,1.95
2023-02-05T10:37:18.918Z,2.20
2023-02-05T10:39:47.391Z,1.95
2023-02-05T10:42:40.493Z,2.28
2023-02-05T10:45:22.638Z,2.22
2023-02-05T10:48:08.042Z,2.05
2023-02-05T10:50:51.645Z,2.30
2023-02-05T10:53:25.082Z,2.00
2023-02-05T10:55:53.673Z,2.20
2023-02-05T10:58:30.028Z,2.10
2023-02-05T11:00:59.417Z,2.25
2023-02-05T11:03:29.364Z,1.95
2023-02-05T11:05:59.517Z,2.38
2023-02-05T11:08:39.100Z,2.67
2023-02-05T11:11:16.883Z,2.38
2023-02-05T11:13:52.687Z,2.78
2023-02-05T11:16:23.838Z,2.08
2023-02-05T11:19:01.573Z,2.30
2023-02-05T11:21:46.466Z,2.22
2023-02-05T11:24:31.799Z,2.25
2023-02-05T11:27:13.687Z,2.30
2023-02-05T11:29:40.588Z,1.67
2023-02-05T11:32:33.698Z,2.08
2023-02-05T11:35:19.863Z,2.28
2023-02-05T11:37:51.017Z,2.42
2023-02-05T11:40:22.029Z,1.70
2023-02-05T11:43:00.291Z,2.10
2023-02-05T11:45:29.837Z,2.25
2023-02-05T11:48:01.614Z,1.90
2023-02-05T11:50:33.194Z,2.15
2023-02-05T11:53:22.596Z,2.08
2023-02-05T11:55:58.690Z,2.33
2023-02-05T11:58:36.683Z,2.00
2023-02-05T12:01:21.510Z,2.10
2023-02-05T12:04:17.314Z,1.98
2023-02-05T12:06:50.701Z,1.73
2023-02-05T12:09:23.060Z,1.88
2023-02-05T12:12:11.448Z,2.30
2023-02-05T12:14:46.181Z,2.30
2023-02-05T12:17:31.705Z,2.33
2023-02-05T12:20:05.907Z,2.15
2023-02-05T12:22:49.721Z,2.10
2023-02-05T12:25:23.715Z,1.88
2023-02-05T12:28:11.732Z,2.03
2023-02-05T12:30:58.514Z,1.80
2023-02-05T12:33:57.121Z,1.92
2023-02-05T12:36:40.992Z,2.28
2023-02-05T12:39:38.047Z,1.65
2023-02-05T12:42:17.757Z,2.03
2023-02-05T12:45:10.832Z,1.85
2023-02-05T12:47:54.313Z,1.60
2023-02-05T12:50:38.283Z,1.80
2023-02-05T12:53:21.088Z,1.90
2023-02-05T12:56:17.566Z,2.08
2023-02-05T12:58:50.411Z,2.17
2023-02-05T13:01:24.939Z,1.70
2023-02-05T13:03:58.018Z,2.25
2023-02-05T13:06:34.182Z,1.83
2023-02-05T13:09:05.654Z,1.98
2023-02-05T13:11:42.416Z,2.20
2023-02-05T13:14:17.751Z,1.90
2023-02-05T13:16:49.491Z,2.13
2023-02-05T13:19:34.661Z,1.70
2023-02-05T13:22:29.772Z,2.00
2023-02-05T13:25:21.081Z,2.40
2023-02-05T13:28:13.357Z,2.10
2023-02-05T13:30:52.796Z,2.00
2023-02-05T13:33:20.050Z,1.92
2023-02-05T13:36:10.774Z,1.98
2023-02-05T13:39:05.250Z,1.90
2023-02-05T13:41:49.136Z,1.90
2023-02-05T13:44:42.820Z,2.03
2023-02-05T13:47:22.540Z,1.85
2023-02-05T13:50:13.330Z,1.80
2023-02-05T13:52:58.403Z,1.95
2023-02-05T13:55:41.646Z,1.50
2023-02-05T13:58:25.051Z,2.53
2023-02-05T14:01:15.565Z,2.15
2023-02-05T14:03:56.676Z,1.52
2023-02-05T14:06:32.122Z,2.10
2023-02-05T14:09:06.830Z,2.07
2023-02-05T14:11:52.772Z,2.10
2023-02-05T14:14:28.655Z,2.00
2023-02-05T14:16:58.649Z,1.98
2023-02-05T14:19:43.720Z,2.00
2023-02-05T14:22:31.688Z,2.03
2023-02-05T14:24:59.977Z,1.80
2023-02-05T14:27:47.734Z,1.80
2023-02-05T14:30:33.180Z,1.70
2023-02-05T14:33:02.962Z,1.90
2023-02-05T14:35:40.032Z,2.33
2023-02-05T14:38:25.020Z,2.33
2023-02-05T14:41:12.944Z,2.15
2023-02-05T14:43:42.391Z,2.20
2023-02-05T14:46:25.128Z,2.42
2023-02-05T14:48:57.237Z,2.38
2023-02-05T14:51:30.386Z,1.98
2023-02-05T14:54:01.812Z,2.10
2023-02-05T14:56:37.763Z,2.20
2023-02-05T14:59:20.306Z,2.17
2023-02-05T15:01:50.593Z,2.03
2023-02-05T15:04:30.164Z,1.98
2023-02-05T15:07:03.014Z,2.13
2023-02-05T15:09:52.163Z,2.90
2023-02-05T15:12:59.760Z,2.13
2023-02-05T15:15:34.084Z,1.88
2023-02-05T15:18:10.303Z,2.42
2023-02-05T15:20:41.123Z,2.00
2023-02-05T15:23:18.075Z,2.20
2023-02-05T15:26:04.930Z,2.13
2023-02-05T15:28:39.299Z,3.28
2023-02-05T15:31:37.415Z,2.58
2023-02-05T15:34:42.448Z,2.95
2023-02-05T15:37:31.265Z,3.00
2023-02-05T15:40:18.608Z,2.88
2023-02-05T15:42:50.671Z,2.80
2023-02-05T15:45:29.235Z,3.47
2023-02-05T15:48:12.985Z,3.22
2023-02-05T15:51:02.515Z,3.47
2023-02-05T15:53:43.226Z,4.43
2023-02-05T15:56:33.324Z,5.15
2023-02-05T15:59:19.951Z,6.00
2023-02-05T16:02:06.451Z,9.00
2023-02-05T16:04:37.029Z,9.25
2023-02-05T16:07:22.687Z,9.70
2023-02-05T16:09:54.815Z,10.48
2023-02-05T16:12:23.260Z,10.38
2023-02-05T16:15:07.472Z,9.70
2023-02-05T16:17:45.851Z,8.30
2023-02-05T16:20:28.232Z,7.13
2023-02-05T16:23:01.333Z,6.05
2023-02-05T16:25:46.029Z,6.05
2023-02-05T16:28:39.167Z,5.70
2023-02-05T16:31:11.216Z,4.93
2023-02-05T16:33:47.007Z,6.50
2023-02-05T16:36:22.136Z,5.18
2023-02-05T16:38:58.275Z,4.78
2023-02-05T16:41:31.784Z,4.60
2023-02-05T16:44:04.422Z,4.78
2023-02-05T16:46:37.764Z,5.20
2023-02-05T16:49:31.942Z,4.47
2023-02-05T16:52:00.778Z,4.53
2023-02-05T16:54:30.440Z,4.82
2023-02-05T16:57:08.371Z,5.22
2023-02-05T16:59:58.091Z,5.88
2023-02-05T17:02:29.679Z,4.90
2023-02-05T17:05:00.228Z,5.38
2023-02-05T17:07:30.396Z,4.93
2023-02-05T17:10:15.067Z,5.43
2023-02-05T17:12:55.747Z,6.55
2023-02-05T17:15:27.218Z,6.70
2023-02-05T17:17:59.528Z,6.43
2023-02-05T17:20:29.860Z,5.68
2023-02-05T17:23:14.412Z,4.70
2023-02-05T17:25:57.191Z,5.30
2023-02-05T17:28:28.031Z,5.15
2023-02-05T17:30:59.377Z,5.10
2023-02-05T17:33:28.745Z,3.58
2023-02-05T17:35:57.653Z,3.75
2023-02-05T17:38:25.424Z,3.60
2023-02-05T17:41:14.908Z,3.38
2023-02-05T17:43:42.700Z,3.10
2023-02-05T17:46:14.721Z,2.90
2023-02-05T17:48:45.541Z,3.28
2023-02-05T17:51:21.644Z,3.13
2023-02-05T17:53:50.469Z,3.65
2023-02-05T17:56:20.890Z,3.22
2023-02-05T17:58:50.369Z,4.07
2023-02-05T18:01:18.264Z,3.55
2023-02-05T18:03:47.915Z,3.15
2023-02-05T18:06:20.047Z,3.38
2023-02-05T18:08:48.048Z,3.60
2023-02-05T18:11:15.974Z,4.00
2023-02-05T18:13:43.526Z,4.18
2023-02-05T18:16:12.271Z,4.85
2023-02-05T18:18:41.679Z,5.18
2023-02-05T18:21:11.343Z,5.78
2023-02-05T18:23:39.299Z,7.35
2023-02-05T18:26:10.226Z,8.68
2023-02-05T18:28:37.460Z,6.75
2023-02-05T18:31:08.096Z,6.22
2023-02-05T18:33:36.472Z,5.75
2023-02-05T18:36:07.599Z,6.90
2023-02-05T18:38:36.335Z,6.85
2023-02-05T18:41:10.029Z,6.53
2023-02-05T18:43:38.489Z,6.78
2023-02-05T18:46:11.013Z,7.45
2023-02-05T18:48:41.115Z,6.72
2023-02-05T18:51:11.665Z,7.32
2023-02-05T18:53:40.885Z,7.70
2023-02-05T18:56:12.765Z,6.28
2023-02-05T18:58:41.456Z,5.70
2023-02-05T19:01:11.165Z,6.05
2023-02-05T19:03:41.050Z,5.53
2023-02-05T19:06:09.937Z,4.82
2023-02-05T19:08:38.847Z,5.07
2023-02-05T19:11:13.497Z,6.88
2023-02-05T19:13:42.667Z,8.85
2023-02-05T19:16:14.605Z,9.40
2023-02-05T19:18:45.677Z,8.75
2023-02-05T19:21:16.020Z,7.93
2023-02-05T19:23:45.764Z,7.10
2023-02-05T19:26:16.025Z,4.57
2023-02-05T19:28:45.628Z,4.82
2023-02-05T19:31:15.008Z,6.30
2023-02-05T19:33:43.877Z,5.72
2023-02-05T19:36:12.048Z,6.47
2023-02-05T19:38:40.634Z,5.75
2023-02-05T19:41:14.029Z,6.45
2023-02-05T19:43:50.416Z,5.30
2023-02-05T19:46:20.632Z,5.35
2023-02-05T19:48:49.228Z,5.70
2023-02-05T19:51:17.225Z,5.63
2023-02-05T19:53:46.138Z,6.38
2023-02-05T19:56:17.629Z,6.18
2023-02-05T19:58:48.074Z,7.18
2023-02-05T20:01:19.059Z,7.10
2023-02-05T20:03:48.482Z,8.52
2023-02-05T20:06:18.160Z,5.78
2023-02-05T20:08:47.149Z,5.50
2023-02-05T20:11:16.123Z,5.88
2023-02-05T20:13:44.888Z,5.80
2023-02-05T20:16:17.305Z,5.38
2023-02-05T20:18:45.785Z,5.28
2023-02-05T20:21:16.488Z,4.93
2023-02-05T20:23:44.514Z,4.93
2023-02-05T20:26:14.947Z,5.75
2023-02-05T20:28:58.394Z,4.85
2023-02-05T20:31:38.674Z,5.70
2023-02-05T20:34:10.241Z,5.05
2023-02-05T20:36:39.353Z,5.20
2023-02-05T20:39:09.207Z,5.38
2023-02-05T20:41:36.883Z,10.45
2023-02-05T20:44:05.227Z,6.95
2023-02-05T20:46:33.858Z,6.30
2023-02-05T20:49:04.219Z,6.85
2023-02-05T20:51:32.885Z,5.88
2023-02-05T20:54:01.738Z,5.32
2023-02-05T20:56:31.344Z,6.72
2023-02-05T20:59:02.067Z,6.10
2023-02-05T21:01:33.685Z,6.18
2023-02-05T21:04:04.436Z,5.53
2023-02-05T21:06:36.373Z,5.88
2023-02-05T21:09:06.904Z,4.82
2023-02-05T21:11:35.689Z,6.05
2023-02-05T21:14:04.865Z,5.65
2023-02-05T21:16:34.848Z,5.45
2023-02-05T21:19:05.701Z,5.45
2023-02-05T21:21:35.965Z,5.10
2023-02-05T21:24:08.546Z,5.63
2023-02-05T21:26:40.179Z,5.00
2023-02-05T21:29:11.622Z,3.63
2023-02-05T21:31:44.815Z,3.97
2023-02-05T21:34:16.837Z,4.35
2023-02-05T21:36:46.731Z,4.07
2023-02-05T21:39:19.022Z,4.43
2023-02-05T21:41:47.717Z,4.07
2023-02-05T21:44:15.463Z,3.88
2023-02-05T21:46:44.211Z,4.00
2023-02-05T21:49:16.032Z,3.85
2023-02-05T21:51:43.728Z,3.70
2023-02-05T21:54:12.199Z,4.35
2023-02-05T21:56:44.431Z,3.70
2023-02-05T21:59:14.280Z,4.20
2023-02-05T22:01:43.154Z,3.70
2023-02-05T22:04:16.000Z,4.28
2023-02-05T22:06:46.389Z,4.20
2023-02-05T22:09:15.604Z,4.85
2023-02-05T22:11:46.194Z,4.30
2023-02-05T22:14:14.461Z,5.10
2023-02-05T22:16:43.549Z,4.97
2023-02-05T22:19:11.410Z,4.00
2023-02-05T22:21:42.240Z,4.05
2023-02-05T22:24:15.302Z,4.43
2023-02-05T22:26:43.401Z,4.70
2023-02-05T22:29:14.659Z,4.55
2023-02-05T22:31:42.332Z,4.45
2023-02-05T22:34:09.296Z,5.10
2023-02-05T22:36:38.236Z,4.97
2023-02-05T22:39:07.772Z,4.05
2023-02-05T22:41:39.361Z,4.25
2023-02-05T22:44:07.509Z,3.70
2023-02-05T22:46:38.446Z,4.68
2023-02-05T22:49:06.516Z,4.07
2023-02-05T22:51:38.242Z,3.53
2023-02-05T22:54:08.136Z,3.72
2023-02-05T22:56:35.905Z,3.97
2023-02-05T22:59:04.460Z,3.75
2023-02-05T23:01:35.346Z,4.57
2023-02-05T23:04:04.963Z,3.92
2023-02-05T23:06:35.450Z,3.40
2023-02-05T23:09:08.309Z,3.88
2023-02-05T23:11:36.854Z,3.88
2023-02-05T23:14:06.054Z,4.07
2023-02-05T23:16:38.018Z,3.90
2023-02-05T23:19:09.579Z,3.55
2023-02-05T23:21:39.455Z,3.97
2023-02-05T23:24:08.490Z,4.32
2023-02-05T23:26:42.225Z,4.68
2023-02-05T23:29:12.680Z,4.65
2023-02-05T23:31:40.786Z,4.25
2023-02-05T23:34:09.915Z,4.20
2023-02-05T23:36:38.319Z,4.30
2023-02-05T23:39:06.529Z,4.15
2023-02-05T23:41:36.395Z,4.28
2023-02-05T23:44:08.368Z,4.03
2023-02-05T23:46:36.850Z,4.20
2023-02-05T23:49:05.072Z,3.80
2023-02-05T23:51:33.608Z,4.18
2023-02-05T23:54:02.551Z,3.60
2023-02-05T23:56:31.594Z,3.50
2023-02-05T23:59:00.249Z,3.58
